Sun, 17 Oct 2021 21:24:25 UTC

Information for RPM brotli-1.0.7-10.fc32.aarch64.rpm

ID20169787
Namebrotli
Version1.0.7
Release10.fc32
Epoch
Archaarch64
SummaryLossless compression algorithm
DescriptionBrotli is a generic-purpose lossless compression algorithm that compresses data using a combination of a modern variant of the LZ77 algorithm, Huffman coding and 2nd order context modeling, with a compression ratio comparable to the best currently available general-purpose compression methods. It is similar in speed with deflate but offers more dense compression.
Build Time2020-01-28 13:24:32 GMT
Size326,998
81a65edb87bfe82f8f6a77f41c97fe27
LicenseMIT
Buildrootf32-build-19252449-1345396
Provides
brotli = 1.0.7-10.fc32
brotli(aarch-64) = 1.0.7-10.fc32
Obsoletes No Obsoletes
Conflicts No Conflicts
Requires
ld-linux-aarch64.so.1()(64bit)
ld-linux-aarch64.so.1(GLIBC_2.17)(64bit)
libbrotli(aarch-64) = 1.0.7-10.fc32
libc.so.6()(64bit)
libc.so.6(GLIBC_2.17)(64bit)
libm.so.6()(64bit)
libm.so.6(GLIBC_2.29)(64bit)
rpmlib(CompressedFileNames) <= 3.0.4-1
rpmlib(FileDigests) <= 4.6.0-1
rpmlib(PayloadFilesHavePrefix) <= 4.0-1
rpmlib(PayloadIsZstd) <= 5.4.18-1
rtld(GNU_HASH)
Recommends No Recommends
Suggests No Suggests
Supplements No Supplements
Enhances No Enhances
Files
1 through 4 of 4
Name ascending sort Size
/usr/bin/brotli727,928
/usr/lib/.build-id0
/usr/lib/.build-id/a70
/usr/lib/.build-id/a7/09411afbe935910e7670fd050f8a29ecdcac4826
Component of
Page:
1 through 50 of 8985 >>>
Buildroot descending sort Created State
f32-build-23397141-2264779 2020-10-16 20:44:02 expired
f32-build-23394089-2264676 2020-10-16 14:40:46 expired
f32-build-23394070-2264676 2020-10-16 14:40:06 expired
f32-build-23394030-2264676 2020-10-16 14:37:29 expired
f32-build-23393842-2264210 2020-10-16 14:30:03 expired
f32-build-23390112-2263422 2020-10-16 10:28:48 expired
f32-build-23388510-2261574 2020-10-16 07:28:38 expired
f32-build-23382363-2261574 2020-10-16 01:02:35 expired
f32-build-23381361-2260800 2020-10-15 23:44:05 expired
f32-build-23378756-2259636 2020-10-15 20:14:55 expired
f32-build-23356841-2250372 2020-10-14 12:36:35 expired
f32-build-23354165-2249337 2020-10-14 07:54:55 expired
f32-build-23354056-2249337 2020-10-14 07:42:48 expired
f32-build-23354033-2249337 2020-10-14 07:42:23 expired
f32-build-23345831-2245938 2020-10-13 18:50:59 expired
f32-build-23343304-2244618 2020-10-13 16:02:43 expired
f32-build-23342539-2244618 2020-10-13 15:02:23 expired
f32-build-23342410-2244618 2020-10-13 14:51:48 expired
f32-build-23334386-2241654 2020-10-13 07:12:59 expired
f32-build-23334379-2241654 2020-10-13 07:12:39 expired
f32-build-23334373-2241654 2020-10-13 07:12:23 expired
f32-build-23331972-2241654 2020-10-13 05:58:44 expired
f32-build-23321385-2238080 2020-10-12 18:49:00 expired
f32-build-23318399-2237457 2020-10-12 14:46:08 expired
f32-build-23317599-2237457 2020-10-12 13:53:15 expired
f32-build-23314887-2235679 2020-10-12 10:33:13 expired
f32-build-23314565-2235679 2020-10-12 10:16:34 expired
f32-build-23309885-2235101 2020-10-12 06:16:32 expired
f32-build-23309876-2235101 2020-10-12 06:16:11 expired
f32-build-23309875-2235101 2020-10-12 06:16:11 expired
f32-build-23309514-2235101 2020-10-12 05:56:27 expired
f32-build-23309315-2235101 2020-10-12 05:50:27 expired
f32-build-23307390-2235101 2020-10-12 04:32:27 expired
f32-build-23305420-2234600 2020-10-12 03:02:29 expired
f32-build-23305334-2234600 2020-10-12 02:59:27 expired
f32-build-23299636-2234433 2020-10-11 23:44:45 expired
f32-build-23297837-2233319 2020-10-11 22:12:21 expired
f32-build-23297835-2233319 2020-10-11 22:12:19 expired
f32-build-23297828-2233319 2020-10-11 22:12:02 expired
f32-build-23296327-2233319 2020-10-11 21:15:08 expired
f32-build-23295379-2233319 2020-10-11 20:30:32 expired
f32-build-23295375-2233319 2020-10-11 20:30:32 expired
f32-build-23295369-2233319 2020-10-11 20:30:13 expired
f32-build-23295330-2233319 2020-10-11 20:29:11 expired
f32-build-23294968-2233319 2020-10-11 20:14:36 expired
f32-build-23294713-2233319 2020-10-11 19:55:19 expired
f32-build-23294040-2232744 2020-10-11 18:51:28 expired
f32-build-23292682-2232744 2020-10-11 17:28:20 expired
f32-build-23290465-2230597 2020-10-11 15:36:34 expired
f32-build-23288842-2230597 2020-10-11 14:40:36 expired